sensor_id;sensor_type;location;lat;lon;timestamp;P1;durP1;ratioP1;P2;durP2;ratioP2
56239;SDS011;42154;51.992;5.896;2023-12-20T00:00:58;7.35;;;1.98;;
56239;SDS011;42154;51.992;5.896;2023-12-20T00:03:24;8.45;;;1.73;;
56239;SDS011;42154;51.992;5.896;2023-12-20T00:05:49;7.63;;;2.03;;
56239;SDS011;42154;51.992;5.896;2023-12-20T00:08:16;9.27;;;2.28;;
56239;SDS011;42154;51.992;5.896;2023-12-20T00:10:42;9.63;;;2.40;;
56239;SDS011;42154;51.992;5.896;2023-12-20T00:13:09;8.30;;;1.60;;
56239;SDS011;42154;51.992;5.896;2023-12-20T00:15:35;7.45;;;1.85;;
56239;SDS011;42154;51.992;5.896;2023-12-20T00:18:01;8.10;;;2.42;;
56239;SDS011;42154;51.992;5.896;2023-12-20T00:20:27;8.27;;;2.60;;
56239;SDS011;42154;51.992;5.896;2023-12-20T00:22:56;9.30;;;1.92;;
56239;SDS011;42154;51.992;5.896;2023-12-20T00:25:23;6.82;;;2.25;;
56239;SDS011;42154;51.992;5.896;2023-12-20T00:27:49;8.23;;;2.33;;
56239;SDS011;42154;51.992;5.896;2023-12-20T00:30:15;8.95;;;2.40;;
56239;SDS011;42154;51.992;5.896;2023-12-20T00:32:41;9.52;;;2.22;;
56239;SDS011;42154;51.992;5.896;2023-12-20T00:35:14;7.47;;;1.90;;
56239;SDS011;42154;51.992;5.896;2023-12-20T00:37:41;6.78;;;1.95;;
56239;SDS011;42154;51.992;5.896;2023-12-20T00:40:07;8.88;;;2.45;;
56239;SDS011;42154;51.992;5.896;2023-12-20T00:42:33;7.07;;;1.95;;
56239;SDS011;42154;51.992;5.896;2023-12-20T00:44:59;11.00;;;2.70;;
56239;SDS011;42154;51.992;5.896;2023-12-20T00:47:25;7.10;;;1.98;;
56239;SDS011;42154;51.992;5.896;2023-12-20T00:49:51;9.07;;;2.30;;
56239;SDS011;42154;51.992;5.896;2023-12-20T00:52:17;4.80;;;1.70;;
56239;SDS011;42154;51.992;5.896;2023-12-20T00:54:43;10.13;;;2.30;;
56239;SDS011;42154;51.992;5.896;2023-12-20T00:57:09;6.95;;;2.35;;
56239;SDS011;42154;51.992;5.896;2023-12-20T00:59:35;9.50;;;2.35;;
56239;SDS011;42154;51.992;5.896;2023-12-20T01:02:00;14.43;;;3.13;;
56239;SDS011;42154;51.992;5.896;2023-12-20T01:04:26;7.13;;;1.90;;
56239;SDS011;42154;51.992;5.896;2023-12-20T01:06:52;8.85;;;2.22;;
56239;SDS011;42154;51.992;5.896;2023-12-20T01:09:18;11.10;;;2.30;;
56239;SDS011;42154;51.992;5.896;2023-12-20T01:11:44;13.00;;;2.90;;
56239;SDS011;42154;51.992;5.896;2023-12-20T01:14:11;12.23;;;2.97;;
56239;SDS011;42154;51.992;5.896;2023-12-20T01:16:37;10.95;;;2.45;;
56239;SDS011;42154;51.992;5.896;2023-12-20T01:19:03;13.68;;;3.15;;
56239;SDS011;42154;51.992;5.896;2023-12-20T01:21:29;7.57;;;2.22;;
56239;SDS011;42154;51.992;5.896;2023-12-20T01:23:55;11.77;;;2.17;;
56239;SDS011;42154;51.992;5.896;2023-12-20T01:26:20;8.00;;;2.33;;
56239;SDS011;42154;51.992;5.896;2023-12-20T01:28:46;12.75;;;2.25;;
56239;SDS011;42154;51.992;5.896;2023-12-20T01:31:12;10.57;;;2.65;;
56239;SDS011;42154;51.992;5.896;2023-12-20T01:33:38;11.40;;;2.55;;
56239;SDS011;42154;51.992;5.896;2023-12-20T01:36:04;14.60;;;2.53;;
56239;SDS011;42154;51.992;5.896;2023-12-20T01:38:30;9.05;;;2.38;;
56239;SDS011;42154;51.992;5.896;2023-12-20T01:40:56;9.18;;;2.58;;
56239;SDS011;42154;51.992;5.896;2023-12-20T01:43:21;8.45;;;2.40;;
56239;SDS011;42154;51.992;5.896;2023-12-20T01:45:47;13.00;;;2.88;;
56239;SDS011;42154;51.992;5.896;2023-12-20T01:48:13;8.88;;;2.53;;
56239;SDS011;42154;51.992;5.896;2023-12-20T01:50:41;10.55;;;2.60;;
56239;SDS011;42154;51.992;5.896;2023-12-20T01:53:08;10.27;;;2.35;;
56239;SDS011;42154;51.992;5.896;2023-12-20T01:55:37;8.77;;;2.13;;
56239;SDS011;42154;51.992;5.896;2023-12-20T01:58:05;7.78;;;1.85;;
56239;SDS011;42154;51.992;5.896;2023-12-20T02:00:33;7.72;;;2.13;;
56239;SDS011;42154;51.992;5.896;2023-12-20T02:03:03;9.82;;;2.10;;
56239;SDS011;42154;51.992;5.896;2023-12-20T02:05:29;12.85;;;2.78;;
56239;SDS011;42154;51.992;5.896;2023-12-20T02:07:55;9.45;;;2.05;;
56239;SDS011;42154;51.992;5.896;2023-12-20T02:10:21;8.88;;;2.63;;
56239;SDS011;42154;51.992;5.896;2023-12-20T02:12:47;7.15;;;2.10;;
56239;SDS011;42154;51.992;5.896;2023-12-20T02:15:13;10.57;;;2.42;;
56239;SDS011;42154;51.992;5.896;2023-12-20T02:17:39;13.05;;;2.63;;
56239;SDS011;42154;51.992;5.896;2023-12-20T02:20:05;13.98;;;2.90;;
56239;SDS011;42154;51.992;5.896;2023-12-20T02:22:31;10.57;;;2.47;;
56239;SDS011;42154;51.992;5.896;2023-12-20T02:24:57;8.02;;;2.13;;
56239;SDS011;42154;51.992;5.896;2023-12-20T02:27:23;9.38;;;2.35;;
56239;SDS011;42154;51.992;5.896;2023-12-20T02:29:49;13.45;;;2.72;;
56239;SDS011;42154;51.992;5.896;2023-12-20T02:32:18;14.05;;;2.78;;
56239;SDS011;42154;51.992;5.896;2023-12-20T02:34:46;14.88;;;2.38;;
56239;SDS011;42154;51.992;5.896;2023-12-20T02:37:13;7.75;;;2.33;;
56239;SDS011;42154;51.992;5.896;2023-12-20T02:39:39;10.02;;;2.30;;
56239;SDS011;42154;51.992;5.896;2023-12-20T02:42:04;5.80;;;1.70;;
56239;SDS011;42154;51.992;5.896;2023-12-20T02:44:30;5.90;;;1.80;;
56239;SDS011;42154;51.992;5.896;2023-12-20T02:46:56;9.07;;;2.00;;
56239;SDS011;42154;51.992;5.896;2023-12-20T02:49:21;8.35;;;2.65;;
56239;SDS011;42154;51.992;5.896;2023-12-20T02:51:47;12.20;;;3.17;;
56239;SDS011;42154;51.992;5.896;2023-12-20T02:54:13;8.50;;;2.80;;
56239;SDS011;42154;51.992;5.896;2023-12-20T02:56:39;10.77;;;3.25;;
56239;SDS011;42154;51.992;5.896;2023-12-20T02:59:05;13.70;;;2.95;;
56239;SDS011;42154;51.992;5.896;2023-12-20T03:01:31;10.13;;;2.80;;
56239;SDS011;42154;51.992;5.896;2023-12-20T03:03:57;13.07;;;3.17;;
56239;SDS011;42154;51.992;5.896;2023-12-20T03:06:22;11.80;;;2.70;;
56239;SDS011;42154;51.992;5.896;2023-12-20T03:08:48;9.75;;;2.65;;
56239;SDS011;42154;51.992;5.896;2023-12-20T03:11:14;17.35;;;3.38;;
56239;SDS011;42154;51.992;5.896;2023-12-20T03:13:40;10.82;;;3.10;;
56239;SDS011;42154;51.992;5.896;2023-12-20T03:16:09;10.93;;;2.70;;
56239;SDS011;42154;51.992;5.896;2023-12-20T03:18:35;15.27;;;3.58;;
56239;SDS011;42154;51.992;5.896;2023-12-20T03:21:01;11.07;;;3.30;;
56239;SDS011;42154;51.992;5.896;2023-12-20T03:23:26;17.52;;;3.17;;
56239;SDS011;42154;51.992;5.896;2023-12-20T03:25:53;12.85;;;3.75;;
56239;SDS011;42154;51.992;5.896;2023-12-20T03:28:19;12.00;;;3.13;;
56239;SDS011;42154;51.992;5.896;2023-12-20T03:30:45;14.75;;;2.92;;
56239;SDS011;42154;51.992;5.896;2023-12-20T03:33:10;13.18;;;2.70;;
56239;SDS011;42154;51.992;5.896;2023-12-20T03:35:36;13.20;;;2.55;;
56239;SDS011;42154;51.992;5.896;2023-12-20T03:38:02;10.32;;;2.70;;
56239;SDS011;42154;51.992;5.896;2023-12-20T03:40:28;14.32;;;3.17;;
56239;SDS011;42154;51.992;5.896;2023-12-20T03:42:54;11.80;;;2.47;;
56239;SDS011;42154;51.992;5.896;2023-12-20T03:45:19;13.02;;;2.60;;
56239;SDS011;42154;51.992;5.896;2023-12-20T03:47:45;14.05;;;2.92;;
56239;SDS011;42154;51.992;5.896;2023-12-20T03:50:11;11.98;;;2.75;;
56239;SDS011;42154;51.992;5.896;2023-12-20T03:52:36;13.75;;;2.70;;
56239;SDS011;42154;51.992;5.896;2023-12-20T03:55:02;9.57;;;2.70;;
56239;SDS011;42154;51.992;5.896;2023-12-20T03:57:28;10.65;;;2.70;;
56239;SDS011;42154;51.992;5.896;2023-12-20T03:59:54;9.02;;;2.78;;
56239;SDS011;42154;51.992;5.896;2023-12-20T04:02:19;14.57;;;3.10;;
56239;SDS011;42154;51.992;5.896;2023-12-20T04:04:45;10.48;;;2.80;;
56239;SDS011;42154;51.992;5.896;2023-12-20T04:07:11;15.60;;;3.67;;
56239;SDS011;42154;51.992;5.896;2023-12-20T04:09:37;14.52;;;3.90;;
56239;SDS011;42154;51.992;5.896;2023-12-20T04:12:03;15.98;;;3.20;;
56239;SDS011;42154;51.992;5.896;2023-12-20T04:14:30;14.52;;;2.80;;
56239;SDS011;42154;51.992;5.896;2023-12-20T04:16:55;13.95;;;2.92;;
56239;SDS011;42154;51.992;5.896;2023-12-20T04:19:21;14.10;;;3.72;;
56239;SDS011;42154;51.992;5.896;2023-12-20T04:21:47;15.20;;;3.60;;
56239;SDS011;42154;51.992;5.896;2023-12-20T04:24:13;14.07;;;3.00;;
56239;SDS011;42154;51.992;5.896;2023-12-20T04:26:38;12.60;;;3.60;;
56239;SDS011;42154;51.992;5.896;2023-12-20T04:29:04;13.18;;;3.25;;
56239;SDS011;42154;51.992;5.896;2023-12-20T04:31:30;17.63;;;3.88;;
56239;SDS011;42154;51.992;5.896;2023-12-20T04:33:55;10.57;;;2.78;;
56239;SDS011;42154;51.992;5.896;2023-12-20T04:36:21;12.60;;;3.53;;
56239;SDS011;42154;51.992;5.896;2023-12-20T04:38:47;15.82;;;3.55;;
56239;SDS011;42154;51.992;5.896;2023-12-20T04:41:13;13.80;;;3.30;;
56239;SDS011;42154;51.992;5.896;2023-12-20T04:43:41;16.13;;;3.67;;
56239;SDS011;42154;51.992;5.896;2023-12-20T04:46:06;15.45;;;4.10;;
56239;SDS011;42154;51.992;5.896;2023-12-20T04:48:32;13.85;;;3.70;;
56239;SDS011;42154;51.992;5.896;2023-12-20T04:50:58;12.95;;;2.78;;
56239;SDS011;42154;51.992;5.896;2023-12-20T04:53:24;10.63;;;2.85;;
56239;SDS011;42154;51.992;5.896;2023-12-20T04:55:49;13.80;;;3.42;;
56239;SDS011;42154;51.992;5.896;2023-12-20T04:58:15;13.40;;;3.47;;
56239;SDS011;42154;51.992;5.896;2023-12-20T05:00:41;12.20;;;2.65;;
56239;SDS011;42154;51.992;5.896;2023-12-20T05:03:06;15.07;;;3.03;;
56239;SDS011;42154;51.992;5.896;2023-12-20T05:05:33;18.02;;;3.70;;
56239;SDS011;42154;51.992;5.896;2023-12-20T05:07:58;14.20;;;2.88;;
56239;SDS011;42154;51.992;5.896;2023-12-20T05:10:24;9.90;;;2.70;;
56239;SDS011;42154;51.992;5.896;2023-12-20T05:12:51;15.82;;;3.40;;
56239;SDS011;42154;51.992;5.896;2023-12-20T05:15:16;14.93;;;3.10;;
56239;SDS011;42154;51.992;5.896;2023-12-20T05:17:42;11.45;;;2.75;;
56239;SDS011;42154;51.992;5.896;2023-12-20T05:20:08;11.48;;;3.33;;
56239;SDS011;42154;51.992;5.896;2023-12-20T05:22:34;14.70;;;3.58;;
56239;SDS011;42154;51.992;5.896;2023-12-20T05:25:00;13.77;;;3.15;;
56239;SDS011;42154;51.992;5.896;2023-12-20T05:27:25;14.00;;;3.10;;
56239;SDS011;42154;51.992;5.896;2023-12-20T05:29:51;12.88;;;2.97;;
56239;SDS011;42154;51.992;5.896;2023-12-20T05:32:16;12.52;;;3.95;;
56239;SDS011;42154;51.992;5.896;2023-12-20T05:34:42;19.10;;;3.45;;
56239;SDS011;42154;51.992;5.896;2023-12-20T05:37:08;11.90;;;2.88;;
56239;SDS011;42154;51.992;5.896;2023-12-20T05:39:34;19.38;;;3.25;;
56239;SDS011;42154;51.992;5.896;2023-12-20T05:41:59;15.13;;;3.38;;
56239;SDS011;42154;51.992;5.896;2023-12-20T05:44:25;15.82;;;3.45;;
56239;SDS011;42154;51.992;5.896;2023-12-20T05:46:51;18.50;;;4.03;;
56239;SDS011;42154;51.992;5.896;2023-12-20T05:49:16;15.13;;;3.83;;
56239;SDS011;42154;51.992;5.896;2023-12-20T05:51:42;12.73;;;3.30;;
56239;SDS011;42154;51.992;5.896;2023-12-20T05:54:08;11.65;;;3.05;;
56239;SDS011;42154;51.992;5.896;2023-12-20T05:56:34;19.45;;;3.88;;
56239;SDS011;42154;51.992;5.896;2023-12-20T05:59:00;13.68;;;3.08;;
56239;SDS011;42154;51.992;5.896;2023-12-20T06:01:26;13.15;;;2.78;;
56239;SDS011;42154;51.992;5.896;2023-12-20T06:03:52;10.13;;;2.40;;
56239;SDS011;42154;51.992;5.896;2023-12-20T06:06:17;17.75;;;3.05;;
56239;SDS011;42154;51.992;5.896;2023-12-20T06:08:43;18.88;;;4.00;;
56239;SDS011;42154;51.992;5.896;2023-12-20T06:11:09;10.27;;;2.63;;
56239;SDS011;42154;51.992;5.896;2023-12-20T06:13:34;17.25;;;3.10;;
56239;SDS011;42154;51.992;5.896;2023-12-20T06:16:02;17.08;;;3.53;;
56239;SDS011;42154;51.992;5.896;2023-12-20T06:18:30;15.05;;;3.15;;
56239;SDS011;42154;51.992;5.896;2023-12-20T06:20:56;13.90;;;2.75;;
56239;SDS011;42154;51.992;5.896;2023-12-20T06:23:21;17.38;;;3.78;;
56239;SDS011;42154;51.992;5.896;2023-12-20T06:25:47;13.80;;;3.10;;
56239;SDS011;42154;51.992;5.896;2023-12-20T06:28:13;12.90;;;3.03;;
56239;SDS011;42154;51.992;5.896;2023-12-20T06:30:40;17.70;;;4.03;;
56239;SDS011;42154;51.992;5.896;2023-12-20T06:33:06;13.02;;;3.05;;
56239;SDS011;42154;51.992;5.896;2023-12-20T06:35:32;18.33;;;3.15;;
56239;SDS011;42154;51.992;5.896;2023-12-20T06:37:58;15.45;;;3.72;;
56239;SDS011;42154;51.992;5.896;2023-12-20T06:40:23;12.90;;;2.70;;
56239;SDS011;42154;51.992;5.896;2023-12-20T06:42:49;9.35;;;2.47;;
56239;SDS011;42154;51.992;5.896;2023-12-20T06:45:15;15.38;;;2.92;;
56239;SDS011;42154;51.992;5.896;2023-12-20T06:47:40;11.98;;;2.67;;
56239;SDS011;42154;51.992;5.896;2023-12-20T06:50:06;13.80;;;3.08;;
56239;SDS011;42154;51.992;5.896;2023-12-20T06:52:34;17.80;;;3.30;;
56239;SDS011;42154;51.992;5.896;2023-12-20T06:55:00;19.02;;;3.25;;
56239;SDS011;42154;51.992;5.896;2023-12-20T06:57:26;16.23;;;3.20;;
56239;SDS011;42154;51.992;5.896;2023-12-20T06:59:52;13.30;;;2.72;;
56239;SDS011;42154;51.992;5.896;2023-12-20T07:02:18;18.08;;;3.72;;
56239;SDS011;42154;51.992;5.896;2023-12-20T07:04:44;14.93;;;3.22;;
56239;SDS011;42154;51.992;5.896;2023-12-20T07:07:10;14.05;;;3.28;;
56239;SDS011;42154;51.992;5.896;2023-12-20T07:09:35;12.52;;;3.78;;
56239;SDS011;42154;51.992;5.896;2023-12-20T07:12:01;14.43;;;3.00;;
56239;SDS011;42154;51.992;5.896;2023-12-20T07:14:27;19.42;;;4.30;;
56239;SDS011;42154;51.992;5.896;2023-12-20T07:16:54;10.90;;;2.92;;
56239;SDS011;42154;51.992;5.896;2023-12-20T07:19:20;11.75;;;3.20;;
56239;SDS011;42154;51.992;5.896;2023-12-20T07:21:45;14.32;;;3.60;;
56239;SDS011;42154;51.992;5.896;2023-12-20T07:24:11;15.98;;;4.18;;
56239;SDS011;42154;51.992;5.896;2023-12-20T07:26:37;13.55;;;3.97;;
56239;SDS011;42154;51.992;5.896;2023-12-20T07:29:03;13.98;;;3.10;;
56239;SDS011;42154;51.992;5.896;2023-12-20T07:31:29;20.40;;;4.15;;
56239;SDS011;42154;51.992;5.896;2023-12-20T07:33:55;15.15;;;3.33;;
56239;SDS011;42154;51.992;5.896;2023-12-20T07:36:21;16.55;;;4.50;;
56239;SDS011;42154;51.992;5.896;2023-12-20T07:38:47;12.68;;;3.75;;
56239;SDS011;42154;51.992;5.896;2023-12-20T07:41:13;19.63;;;3.58;;
56239;SDS011;42154;51.992;5.896;2023-12-20T07:43:41;15.25;;;4.20;;
56239;SDS011;42154;51.992;5.896;2023-12-20T07:46:07;15.27;;;4.00;;
56239;SDS011;42154;51.992;5.896;2023-12-20T07:48:34;21.92;;;3.55;;
56239;SDS011;42154;51.992;5.896;2023-12-20T07:51:00;11.32;;;2.83;;
56239;SDS011;42154;51.992;5.896;2023-12-20T07:53:26;15.45;;;2.72;;
56239;SDS011;42154;51.992;5.896;2023-12-20T07:55:52;20.58;;;3.60;;
56239;SDS011;42154;51.992;5.896;2023-12-20T07:58:18;18.70;;;4.20;;
56239;SDS011;42154;51.992;5.896;2023-12-20T08:00:44;15.70;;;3.03;;
56239;SDS011;42154;51.992;5.896;2023-12-20T08:03:10;16.75;;;3.47;;
56239;SDS011;42154;51.992;5.896;2023-12-20T08:05:36;15.80;;;3.22;;
56239;SDS011;42154;51.992;5.896;2023-12-20T08:08:04;13.65;;;3.13;;
56239;SDS011;42154;51.992;5.896;2023-12-20T08:10:30;13.50;;;3.20;;
56239;SDS011;42154;51.992;5.896;2023-12-20T08:12:56;13.05;;;3.45;;
56239;SDS011;42154;51.992;5.896;2023-12-20T08:15:22;14.77;;;3.17;;
56239;SDS011;42154;51.992;5.896;2023-12-20T08:17:48;17.40;;;3.40;;
56239;SDS011;42154;51.992;5.896;2023-12-20T08:20:16;12.77;;;3.35;;
56239;SDS011;42154;51.992;5.896;2023-12-20T08:22:42;12.15;;;3.00;;
56239;SDS011;42154;51.992;5.896;2023-12-20T08:25:08;15.27;;;3.67;;
56239;SDS011;42154;51.992;5.896;2023-12-20T08:27:34;15.68;;;3.00;;
56239;SDS011;42154;51.992;5.896;2023-12-20T08:30:05;21.42;;;3.70;;
56239;SDS011;42154;51.992;5.896;2023-12-20T08:32:31;17.08;;;4.20;;
56239;SDS011;42154;51.992;5.896;2023-12-20T08:34:57;15.48;;;2.92;;
56239;SDS011;42154;51.992;5.896;2023-12-20T08:37:23;15.02;;;2.92;;
56239;SDS011;42154;51.992;5.896;2023-12-20T08:39:49;16.33;;;3.47;;
56239;SDS011;42154;51.992;5.896;2023-12-20T08:42:16;17.35;;;3.58;;
56239;SDS011;42154;51.992;5.896;2023-12-20T08:44:41;18.45;;;4.53;;
56239;SDS011;42154;51.992;5.896;2023-12-20T08:47:07;15.15;;;3.45;;
56239;SDS011;42154;51.992;5.896;2023-12-20T08:49:33;14.05;;;3.67;;
56239;SDS011;42154;51.992;5.896;2023-12-20T08:51:59;14.68;;;3.10;;
56239;SDS011;42154;51.992;5.896;2023-12-20T08:54:24;16.38;;;3.38;;
56239;SDS011;42154;51.992;5.896;2023-12-20T08:56:50;14.07;;;3.58;;
56239;SDS011;42154;51.992;5.896;2023-12-20T08:59:16;16.73;;;3.42;;
56239;SDS011;42154;51.992;5.896;2023-12-20T09:01:43;16.15;;;3.45;;
56239;SDS011;42154;51.992;5.896;2023-12-20T09:04:09;15.60;;;3.28;;
56239;SDS011;42154;51.992;5.896;2023-12-20T09:06:35;13.48;;;3.10;;
56239;SDS011;42154;51.992;5.896;2023-12-20T09:09:01;14.90;;;2.95;;
56239;SDS011;42154;51.992;5.896;2023-12-20T09:11:26;11.75;;;2.90;;
56239;SDS011;42154;51.992;5.896;2023-12-20T09:13:52;15.38;;;3.58;;
56239;SDS011;42154;51.992;5.896;2023-12-20T09:16:18;11.43;;;2.63;;
56239;SDS011;42154;51.992;5.896;2023-12-20T09:18:43;15.85;;;3.22;;
56239;SDS011;42154;51.992;5.896;2023-12-20T09:21:09;21.88;;;2.95;;
56239;SDS011;42154;51.992;5.896;2023-12-20T09:23:35;10.77;;;2.42;;
56239;SDS011;42154;51.992;5.896;2023-12-20T09:26:02;12.30;;;2.88;;
56239;SDS011;42154;51.992;5.896;2023-12-20T09:28:28;23.38;;;3.80;;
56239;SDS011;42154;51.992;5.896;2023-12-20T09:30:53;19.92;;;3.58;;
56239;SDS011;42154;51.992;5.896;2023-12-20T09:33:19;16.63;;;3.47;;
56239;SDS011;42154;51.992;5.896;2023-12-20T09:35:45;11.88;;;3.38;;
56239;SDS011;42154;51.992;5.896;2023-12-20T09:38:10;15.13;;;3.67;;
56239;SDS011;42154;51.992;5.896;2023-12-20T09:40:38;14.75;;;3.03;;
56239;SDS011;42154;51.992;5.896;2023-12-20T09:43:25;14.80;;;3.35;;
56239;SDS011;42154;51.992;5.896;2023-12-20T09:45:52;17.35;;;3.63;;
56239;SDS011;42154;51.992;5.896;2023-12-20T09:48:18;24.02;;;4.00;;
56239;SDS011;42154;51.992;5.896;2023-12-20T09:50:45;20.50;;;3.85;;
56239;SDS011;42154;51.992;5.896;2023-12-20T09:53:12;14.13;;;3.45;;
56239;SDS011;42154;51.992;5.896;2023-12-20T09:55:41;22.42;;;3.70;;
56239;SDS011;42154;51.992;5.896;2023-12-20T09:58:07;17.17;;;2.88;;
56239;SDS011;42154;51.992;5.896;2023-12-20T10:00:36;15.55;;;3.72;;
56239;SDS011;42154;51.992;5.896;2023-12-20T10:03:02;15.88;;;3.90;;
56239;SDS011;42154;51.992;5.896;2023-12-20T10:05:31;16.88;;;4.18;;
56239;SDS011;42154;51.992;5.896;2023-12-20T10:07:58;20.70;;;3.78;;
56239;SDS011;42154;51.992;5.896;2023-12-20T10:10:25;15.60;;;2.92;;
56239;SDS011;42154;51.992;5.896;2023-12-20T10:13:01;14.38;;;3.25;;
56239;SDS011;42154;51.992;5.896;2023-12-20T10:15:27;21.23;;;3.92;;
56239;SDS011;42154;51.992;5.896;2023-12-20T10:17:53;13.50;;;3.17;;
56239;SDS011;42154;51.992;5.896;2023-12-20T10:20:19;15.05;;;3.10;;
56239;SDS011;42154;51.992;5.896;2023-12-20T10:22:46;20.80;;;3.20;;
56239;SDS011;42154;51.992;5.896;2023-12-20T10:25:12;12.48;;;3.08;;
56239;SDS011;42154;51.992;5.896;2023-12-20T10:27:38;12.23;;;3.33;;
56239;SDS011;42154;51.992;5.896;2023-12-20T10:30:04;19.67;;;3.70;;
56239;SDS011;42154;51.992;5.896;2023-12-20T10:32:30;12.88;;;3.42;;
56239;SDS011;42154;51.992;5.896;2023-12-20T10:34:56;10.80;;;3.28;;
56239;SDS011;42154;51.992;5.896;2023-12-20T10:37:22;13.88;;;3.28;;
56239;SDS011;42154;51.992;5.896;2023-12-20T10:39:52;12.80;;;3.58;;
56239;SDS011;42154;51.992;5.896;2023-12-20T10:42:22;13.60;;;3.00;;
56239;SDS011;42154;51.992;5.896;2023-12-20T10:44:50;15.57;;;2.95;;
56239;SDS011;42154;51.992;5.896;2023-12-20T10:47:16;12.75;;;3.03;;
56239;SDS011;42154;51.992;5.896;2023-12-20T10:49:42;14.73;;;3.50;;
56239;SDS011;42154;51.992;5.896;2023-12-20T10:52:09;11.60;;;2.92;;
56239;SDS011;42154;51.992;5.896;2023-12-20T10:54:38;10.27;;;2.47;;
56239;SDS011;42154;51.992;5.896;2023-12-20T10:57:05;12.88;;;3.00;;
56239;SDS011;42154;51.992;5.896;2023-12-20T10:59:36;13.77;;;4.25;;
56239;SDS011;42154;51.992;5.896;2023-12-20T11:02:02;14.15;;;3.03;;
56239;SDS011;42154;51.992;5.896;2023-12-20T11:04:40;14.35;;;3.30;;
56239;SDS011;42154;51.992;5.896;2023-12-20T11:07:18;12.45;;;3.40;;
56239;SDS011;42154;51.992;5.896;2023-12-20T11:09:56;13.60;;;3.08;;
56239;SDS011;42154;51.992;5.896;2023-12-20T11:12:40;11.57;;;3.00;;
56239;SDS011;42154;51.992;5.896;2023-12-20T11:15:28;16.88;;;3.17;;
56239;SDS011;42154;51.992;5.896;2023-12-20T11:17:55;14.38;;;3.40;;
56239;SDS011;42154;51.992;5.896;2023-12-20T11:20:24;13.43;;;3.03;;
56239;SDS011;42154;51.992;5.896;2023-12-20T11:23:04;11.25;;;2.75;;
56239;SDS011;42154;51.992;5.896;2023-12-20T11:28:23;14.20;;;2.95;;
56239;SDS011;42154;51.992;5.896;2023-12-20T11:30:54;17.65;;;2.85;;
56239;SDS011;42154;51.992;5.896;2023-12-20T11:33:24;9.40;;;2.45;;
56239;SDS011;42154;51.992;5.896;2023-12-20T11:35:51;17.95;;;3.13;;
56239;SDS011;42154;51.992;5.896;2023-12-20T11:38:17;11.18;;;3.08;;
56239;SDS011;42154;51.992;5.896;2023-12-20T11:40:47;12.50;;;2.67;;
56239;SDS011;42154;51.992;5.896;2023-12-20T11:43:30;10.80;;;2.60;;
56239;SDS011;42154;51.992;5.896;2023-12-20T11:46:03;12.63;;;2.65;;
56239;SDS011;42154;51.992;5.896;2023-12-20T11:51:08;15.55;;;3.28;;
56239;SDS011;42154;51.992;5.896;2023-12-20T11:53:38;12.45;;;2.47;;
56239;SDS011;42154;51.992;5.896;2023-12-20T11:56:08;15.10;;;2.75;;
56239;SDS011;42154;51.992;5.896;2023-12-20T11:58:35;14.85;;;2.42;;
56239;SDS011;42154;51.992;5.896;2023-12-20T12:01:01;9.68;;;2.13;;
56239;SDS011;42154;51.992;5.896;2023-12-20T12:03:29;7.43;;;1.83;;
56239;SDS011;42154;51.992;5.896;2023-12-20T12:05:55;10.77;;;2.72;;
56239;SDS011;42154;51.992;5.896;2023-12-20T12:08:22;10.45;;;2.25;;
56239;SDS011;42154;51.992;5.896;2023-12-20T12:10:48;8.13;;;2.17;;
56239;SDS011;42154;51.992;5.896;2023-12-20T12:13:14;13.32;;;3.28;;
56239;SDS011;42154;51.992;5.896;2023-12-20T12:15:40;8.65;;;2.15;;
56239;SDS011;42154;51.992;5.896;2023-12-20T12:18:07;13.95;;;3.00;;
56239;SDS011;42154;51.992;5.896;2023-12-20T12:20:33;8.65;;;2.22;;
56239;SDS011;42154;51.992;5.896;2023-12-20T12:22:59;10.60;;;2.10;;
56239;SDS011;42154;51.992;5.896;2023-12-20T12:25:26;11.88;;;2.40;;
56239;SDS011;42154;51.992;5.896;2023-12-20T12:27:52;11.48;;;2.92;;
56239;SDS011;42154;51.992;5.896;2023-12-20T12:30:18;11.50;;;2.55;;
56239;SDS011;42154;51.992;5.896;2023-12-20T12:32:44;6.05;;;1.75;;
56239;SDS011;42154;51.992;5.896;2023-12-20T12:35:10;11.77;;;2.47;;
56239;SDS011;42154;51.992;5.896;2023-12-20T12:37:39;11.15;;;2.90;;
56239;SDS011;42154;51.992;5.896;2023-12-20T12:40:12;10.32;;;2.65;;
56239;SDS011;42154;51.992;5.896;2023-12-20T12:42:39;11.70;;;2.33;;
56239;SDS011;42154;51.992;5.896;2023-12-20T12:45:06;12.32;;;2.10;;
56239;SDS011;42154;51.992;5.896;2023-12-20T12:47:33;14.48;;;2.50;;
56239;SDS011;42154;51.992;5.896;2023-12-20T12:49:59;9.45;;;2.17;;
56239;SDS011;42154;51.992;5.896;2023-12-20T12:52:25;8.82;;;2.13;;
56239;SDS011;42154;51.992;5.896;2023-12-20T12:54:52;9.85;;;1.90;;
56239;SDS011;42154;51.992;5.896;2023-12-20T12:57:18;11.20;;;2.78;;
56239;SDS011;42154;51.992;5.896;2023-12-20T12:59:44;10.45;;;2.33;;
56239;SDS011;42154;51.992;5.896;2023-12-20T13:02:12;14.65;;;3.08;;
56239;SDS011;42154;51.992;5.896;2023-12-20T13:04:39;16.00;;;3.15;;
56239;SDS011;42154;51.992;5.896;2023-12-20T13:07:06;9.95;;;2.83;;
56239;SDS011;42154;51.992;5.896;2023-12-20T13:09:32;12.32;;;2.00;;
56239;SDS011;42154;51.992;5.896;2023-12-20T13:11:58;10.48;;;2.10;;
56239;SDS011;42154;51.992;5.896;2023-12-20T13:14:24;11.07;;;2.33;;
56239;SDS011;42154;51.992;5.896;2023-12-20T13:16:50;8.88;;;2.30;;
56239;SDS011;42154;51.992;5.896;2023-12-20T13:19:16;9.23;;;2.20;;
56239;SDS011;42154;51.992;5.896;2023-12-20T13:21:41;8.50;;;2.08;;
56239;SDS011;42154;51.992;5.896;2023-12-20T13:24:07;9.00;;;2.30;;
56239;SDS011;42154;51.992;5.896;2023-12-20T13:26:33;9.27;;;1.85;;
56239;SDS011;42154;51.992;5.896;2023-12-20T13:28:58;9.25;;;2.00;;
56239;SDS011;42154;51.992;5.896;2023-12-20T13:31:24;11.13;;;2.13;;
56239;SDS011;42154;51.992;5.896;2023-12-20T13:33:50;9.73;;;2.42;;
56239;SDS011;42154;51.992;5.896;2023-12-20T13:36:17;13.85;;;2.67;;
56239;SDS011;42154;51.992;5.896;2023-12-20T13:38:43;9.60;;;2.08;;
56239;SDS011;42154;51.992;5.896;2023-12-20T13:41:09;10.55;;;1.95;;
56239;SDS011;42154;51.992;5.896;2023-12-20T13:43:35;10.93;;;2.33;;
56239;SDS011;42154;51.992;5.896;2023-12-20T13:46:01;13.95;;;2.75;;
56239;SDS011;42154;51.992;5.896;2023-12-20T13:48:27;13.18;;;2.20;;
56239;SDS011;42154;51.992;5.896;2023-12-20T13:50:53;13.05;;;2.85;;
56239;SDS011;42154;51.992;5.896;2023-12-20T13:53:20;8.10;;;2.13;;
56239;SDS011;42154;51.992;5.896;2023-12-20T13:55:45;10.68;;;2.40;;
56239;SDS011;42154;51.992;5.896;2023-12-20T13:58:11;9.38;;;2.15;;
56239;SDS011;42154;51.992;5.896;2023-12-20T14:00:37;8.98;;;2.00;;
56239;SDS011;42154;51.992;5.896;2023-12-20T14:03:03;15.45;;;2.80;;
56239;SDS011;42154;51.992;5.896;2023-12-20T14:05:29;8.43;;;2.78;;
56239;SDS011;42154;51.992;5.896;2023-12-20T14:07:56;13.50;;;2.58;;
56239;SDS011;42154;51.992;5.896;2023-12-20T14:10:25;11.90;;;2.35;;
56239;SDS011;42154;51.992;5.896;2023-12-20T14:12:52;14.57;;;2.25;;
56239;SDS011;42154;51.992;5.896;2023-12-20T14:15:18;8.25;;;1.95;;
56239;SDS011;42154;51.992;5.896;2023-12-20T14:17:44;10.75;;;2.20;;
56239;SDS011;42154;51.992;5.896;2023-12-20T14:20:10;11.07;;;2.30;;
56239;SDS011;42154;51.992;5.896;2023-12-20T14:22:39;10.82;;;2.65;;
56239;SDS011;42154;51.992;5.896;2023-12-20T14:25:10;9.50;;;2.03;;
56239;SDS011;42154;51.992;5.896;2023-12-20T14:27:38;10.18;;;2.45;;
56239;SDS011;42154;51.992;5.896;2023-12-20T14:30:04;10.27;;;2.17;;
56239;SDS011;42154;51.992;5.896;2023-12-20T14:32:31;9.70;;;2.00;;
56239;SDS011;42154;51.992;5.896;2023-12-20T14:34:57;11.45;;;1.90;;
56239;SDS011;42154;51.992;5.896;2023-12-20T14:37:23;11.25;;;2.45;;
56239;SDS011;42154;51.992;5.896;2023-12-20T14:39:48;10.60;;;2.08;;